Time;durP1;ratioP1;P1;durP2;ratioP2;P2;SDS_P1;SDS_P2;PMS_P1;PMS_P2;Temp;Humidity;BMP_temperature;BMP_pressure;BME280_temperature;BME280_humidity;BME280_pressure;Samples;Min_cycle;Max_cycle;Signal;HPM_P1;HPM_P2
2022/03/25 00:03:57;;;;;;;109.33;48.00;;;;;;;-0.20;55.07;100074.25;4335520;80;21062;-83
2022/03/25 00:09:59;;;;;;;122.65;53.33;;;;;;;-0.33;55.97;100068.13;4396766;79;21003;-83
2022/03/25 00:16:04;;;;;;;106.77;41.13;;;;;;;-0.39;56.70;100065.21;4401119;80;21816;-84
2022/03/25 00:22:06;;;;;;;104.50;44.93;;;;;;;-0.12;57.98;100068.28;4338868;80;21093;-84
2022/03/25 00:28:09;;;;;;;102.87;45.90;;;;;;;0.01;55.93;100061.47;4351208;80;21021;-85
2022/03/25 00:34:26;;;;;;;109.95;49.58;;;;;;;-0.05;57.39;100057.21;4460476;78;21004;-85
2022/03/25 00:40:29;;;;;;;127.47;51.50;;;;;;;-0.13;57.75;100051.89;4459737;78;21008;-85
2022/03/25 00:46:39;;;;;;;117.60;48.40;;;;;;;-0.31;59.30;100055.74;4463797;78;21998;-85
2022/03/25 00:53:01;;;;;;;107.67;46.67;;;;;;;-0.53;59.12;100056.67;4450186;79;20953;-85
2022/03/25 00:59:02;;;;;;;110.28;49.80;;;;;;;-0.48;59.00;100048.05;4470071;78;21014;-85
2022/03/25 01:12:22;;;;;;;131.33;52.80;;;;;;;-0.64;58.64;100037.09;4463047;78;21057;-84
2022/03/25 01:18:49;;;;;;;122.30;53.03;;;;;;;-0.85;58.95;100036.13;4471908;78;21974;-84
2022/03/25 01:25:10;;;;;;;110.23;47.67;;;;;;;-0.94;60.06;100037.22;4472196;79;21034;-85
2022/03/25 01:31:21;;;;;;;106.57;47.27;;;;;;;-0.75;60.66;100034.75;4470304;77;21119;-85
2022/03/25 01:37:33;;;;;;;94.27;41.30;;;;;;;-0.82;58.92;100029.67;4481469;77;21043;-85
2022/03/25 01:43:56;;;;;;;92.10;42.27;;;;;;;-0.84;60.44;100033.16;4473950;79;21038;-84
2022/03/25 01:50:04;;;;;;;103.17;44.47;;;;;;;-0.63;60.97;100027.97;4477699;77;21015;-83
2022/03/25 01:56:06;;;;;;;124.67;53.07;;;;;;;-0.48;61.25;100029.22;4468299;77;21139;-84
2022/03/25 02:02:09;;;;;;;114.70;48.67;;;;;;;-0.86;60.10;100037.22;4470974;77;21007;-84
2022/03/25 02:15:08;;;;;;;97.07;43.10;;;;;;;-0.80;62.00;100033.42;4394403;79;21005;-84
2022/03/25 02:21:09;;;;;;;104.90;45.67;;;;;;;-0.69;61.70;100031.73;4379171;80;21051;-84
2022/03/25 02:27:12;;;;;;;100.03;42.70;;;;;;;-0.63;62.08;100036.04;4475277;77;21069;-83
2022/03/25 02:33:14;;;;;;;99.23;42.90;;;;;;;-0.55;61.82;100032.73;4474831;77;21034;-83
2022/03/25 02:39:17;;;;;;;98.97;44.37;;;;;;;-0.58;61.70;100039.23;4474664;77;21004;-83
2022/03/25 02:45:22;;;;;;;106.97;45.53;;;;;;;-0.65;62.22;100040.87;4451972;77;21039;-83
2022/03/25 02:51:23;;;;;;;88.20;42.00;;;;;;;-0.62;62.40;100044.36;4473352;77;21628;-84
2022/03/25 02:57:24;;;;;;;110.27;46.63;;;;;;;-0.61;62.05;100047.30;4473031;78;21048;-81
2022/03/25 03:03:26;;;;;;;110.43;46.47;;;;;;;-0.89;61.59;100041.24;4474822;77;21560;-82
2022/03/25 03:30:39;;;;;;;95.80;39.47;;;;;;;-1.22;61.98;100058.00;4461317;79;21016;-81
2022/03/25 03:36:40;;;;;;;100.87;42.97;;;;;;;-1.25;63.21;100057.20;4386175;80;21021;-81
2022/03/25 03:42:44;;;;;;;100.30;41.97;;;;;;;-1.39;63.57;100056.72;4391377;80;21528;-82
2022/03/25 03:55:23;;;;;;;87.77;37.47;;;;;;;-1.24;63.05;100052.11;4389417;80;21071;-81
2022/03/25 04:01:25;;;;;;;83.07;34.60;;;;;;;-1.26;64.37;100050.23;4390378;80;20995;-82
2022/03/25 04:07:27;;;;;;;78.90;35.37;;;;;;;-1.08;64.55;100050.97;4390872;80;21040;-81
2022/03/25 04:13:28;;;;;;;85.37;36.53;;;;;;;-0.92;64.35;100049.86;4392549;79;21049;-82
2022/03/25 04:19:57;;;;;;;92.77;38.90;;;;;;;-0.93;64.36;100053.64;4393002;80;20962;-81
2022/03/25 04:25:59;;;;;;;103.77;42.47;;;;;;;-0.98;64.49;100044.23;4395651;80;21323;-83
2022/03/25 04:32:04;;;;;;;97.00;43.57;;;;;;;-1.05;64.38;100046.39;4393102;79;21070;-80
2022/03/25 04:38:05;;;;;;;90.73;39.30;;;;;;;-1.10;64.62;100053.69;4397801;80;20994;-80
2022/03/25 04:44:07;;;;;;;105.50;46.43;;;;;;;-1.10;64.86;100051.81;4403484;80;21046;-81
2022/03/25 04:50:11;;;;;;;101.37;40.57;;;;;;;-1.07;64.95;100056.63;4400567;79;21050;-81
2022/03/25 04:56:16;;;;;;;106.30;43.53;;;;;;;-1.29;64.13;100060.18;4353874;80;21672;-81
2022/03/25 05:02:18;;;;;;;108.20;46.37;;;;;;;-1.54;64.85;100065.59;4400121;79;21031;-80
2022/03/25 05:08:21;;;;;;;108.83;44.60;;;;;;;-1.50;65.98;100068.55;4402519;79;21864;-80
2022/03/25 05:14:22;;;;;;;102.50;44.63;;;;;;;-1.46;65.15;100071.77;4405705;79;21006;-84
2022/03/25 05:20:24;;;;;;;95.37;40.80;;;;;;;-1.18;66.32;100078.42;4400892;80;22145;-81
2022/03/25 05:26:25;;;;;;;105.40;45.10;;;;;;;-0.89;66.27;100082.13;4402143;79;21876;-81
2022/03/25 05:32:27;;;;;;;95.73;41.53;;;;;;;-0.67;66.17;100089.27;4418472;77;20977;-81
2022/03/25 05:38:30;;;;;;;97.40;43.27;;;;;;;-0.43;66.13;100098.33;4474600;77;21025;-81
2022/03/25 05:44:31;;;;;;;90.70;43.13;;;;;;;-0.22;66.03;100103.32;4467995;77;21104;-83
2022/03/25 05:50:34;;;;;;;93.95;43.25;;;;;;;0.01;66.13;100115.31;4476515;77;21639;-81
2022/03/25 05:56:36;;;;;;;88.30;41.13;;;;;;;0.23;66.31;100120.28;4468609;77;21019;-83
2022/03/25 06:02:38;;;;;;;89.13;40.53;;;;;;;0.48;65.88;100121.44;4479391;77;20966;-82
2022/03/25 06:08:43;;;;;;;90.67;39.15;;;;;;;0.85;66.02;100130.54;4464652;78;21031;-81
2022/03/25 06:14:45;;;;;;;80.72;35.13;;;;;;;1.41;65.96;100124.00;4471124;77;21037;-82
2022/03/25 06:20:46;;;;;;;73.22;32.48;;;;;;;2.16;65.72;100131.12;4472596;77;22240;-81
2022/03/25 06:26:47;;;;;;;72.27;33.98;;;;;;;2.82;65.25;100134.94;4469976;77;21104;-82
2022/03/25 06:32:49;;;;;;;120.35;38.95;;;;;;;3.41;64.80;100127.38;4474161;77;21009;-85
2022/03/25 06:38:50;;;;;;;86.55;35.58;;;;;;;3.91;64.24;100136.63;4472179;77;21001;-82
2022/03/25 06:51:21;;;;;;;70.47;33.70;;;;;;;5.10;63.04;100141.39;4474497;77;21404;-83
2022/03/25 06:57:23;;;;;;;73.42;31.00;;;;;;;5.66;62.20;100139.56;4465971;77;21039;-82
2022/03/25 07:03:25;;;;;;;73.55;32.17;;;;;;;6.21;61.76;100130.36;4469626;77;20987;-84
2022/03/25 07:09:29;;;;;;;73.33;35.33;;;;;;;6.65;60.89;100135.48;4465516;77;21098;-84
2022/03/25 07:15:30;;;;;;;70.03;35.13;;;;;;;6.92;60.31;100134.33;4462516;77;21041;-85
2022/03/25 07:29:12;;;;;;;69.45;37.58;;;;;;;7.55;59.42;100133.72;4462782;77;21013;-85
2022/03/25 07:35:14;;;;;;;75.25;39.10;;;;;;;8.22;58.58;100142.41;4471960;79;20960;-85
2022/03/25 07:48:20;;;;;;;75.05;38.42;;;;;;;9.08;57.25;100146.03;4476785;77;21061;-85
2022/03/25 07:54:21;;;;;;;79.40;40.75;;;;;;;9.68;56.67;100141.25;4475525;77;21505;-87
2022/03/25 08:00:24;;;;;;;70.35;37.33;;;;;;;10.26;55.88;100144.30;4464671;77;21021;-86
2022/03/25 08:06:28;;;;;;;74.30;39.50;;;;;;;10.84;55.19;100145.04;4470533;77;21074;-85
2022/03/25 08:12:37;;;;;;;74.35;39.27;;;;;;;11.33;54.44;100144.78;4470392;77;22031;-86
2022/03/25 08:18:38;;;;;;;69.75;38.75;;;;;;;11.59;53.11;100142.34;4468035;79;21012;-86
2022/03/25 08:31:34;;;;;;;67.47;35.27;;;;;;;12.34;50.73;100145.15;4476780;77;21503;-86
2022/03/25 08:37:40;;;;;;;57.65;32.40;;;;;;;12.80;50.15;100137.29;4472525;77;22009;-87
2022/03/25 08:43:42;;;;;;;;;;;;;;;12.90;48.94;100138.09;4392804;79;21040;-86
2022/03/25 08:49:47;;;;;;;66.10;31.77;;;;;;;13.43;44.46;100143.23;4409588;80;20223;-86
2022/03/25 09:03:09;;;;;;;52.23;26.95;;;;;;;13.72;45.41;100143.92;4476429;79;21019;-86
2022/03/25 09:09:10;;;;;;;44.90;24.63;;;;;;;14.59;44.51;100136.23;4478846;78;21054;-87
2022/03/25 09:15:15;;;;;;;43.58;23.57;;;;;;;15.41;39.63;100129.90;4474301;78;21033;-87
2022/03/25 09:21:20;;;;;;;29.37;15.90;;;;;;;15.24;40.41;100126.35;4488194;77;21508;-87
2022/03/25 09:27:22;;;;;;;26.60;15.30;;;;;;;16.57;40.01;100120.33;4480979;77;21014;-87
2022/03/25 09:33:30;;;;;;;31.23;17.35;;;;;;;18.08;40.24;100120.03;4480815;77;21019;-87
2022/03/25 09:39:31;;;;;;;33.33;18.20;;;;;;;19.05;39.25;100113.77;4468663;79;21896;-87
2022/03/25 09:45:34;;;;;;;33.18;17.95;;;;;;;18.88;37.06;100115.45;4465482;78;21700;-86
2022/03/25 09:51:37;;;;;;;26.00;16.77;;;;;;;19.83;37.23;100106.51;4470202;78;21057;-87
2022/03/25 09:57:38;;;;;;;26.40;16.77;;;;;;;20.20;34.74;100102.44;4464633;78;21126;-84
2022/03/25 10:03:41;;;;;;;22.60;14.65;;;;;;;20.11;33.36;100095.13;4467033;78;21035;-86
2022/03/25 10:16:37;;;;;;;21.55;12.03;;;;;;;20.70;32.53;100105.44;4451928;78;21624;-86
2022/03/25 10:22:38;;;;;;;27.00;15.55;;;;;;;20.90;32.05;100100.80;4461575;78;20996;-86
2022/03/25 10:28:45;;;;;;;28.90;16.48;;;;;;;21.42;32.01;100099.30;4466638;78;21038;-86
2022/03/25 10:34:43;;;;;;;26.62;17.35;;;;;;;21.79;29.85;100088.57;4468318;77;21058;-86
2022/03/25 10:40:56;;;;;;;29.15;18.30;;;;;;;21.77;30.75;100089.00;4470976;77;20992;-85
2022/03/25 10:46:58;;;;;;;31.77;18.55;;;;;;;21.81;29.69;100086.95;4481155;77;21058;-85
2022/03/25 10:53:11;;;;;;;32.05;17.62;;;;;;;21.41;24.79;100080.40;4476311;77;21001;-86
2022/03/25 10:59:38;;;;;;;34.38;21.10;;;;;;;21.45;28.43;100076.97;4389935;79;21068;-86
2022/03/25 11:05:37;;;;;;;36.05;21.73;;;;;;;21.96;28.36;100078.52;4354074;79;29952;-86
2022/03/25 11:11:42;;;;;;;38.55;22.65;;;;;;;21.19;27.24;100068.00;4491529;77;21025;-85
2022/03/25 11:17:45;;;;;;;30.43;17.33;;;;;;;21.19;27.24;100068.00;4480065;77;21656;-85
2022/03/25 11:23:51;;;;;;;22.73;14.73;;;;;;;21.71;27.58;100061.41;4491799;77;21084;-85
2022/03/25 11:29:56;;;;;;;24.75;16.30;;;;;;;21.90;25.20;100064.09;4483253;77;21086;-85
2022/03/25 11:36:14;;;;;;;17.80;10.80;;;;;;;20.72;26.41;100053.72;4494292;76;21036;-87
2022/03/25 11:42:46;;;;;;;21.27;11.70;;;;;;;21.17;26.77;100048.14;4508547;77;21008;-86
2022/03/25 11:48:47;;;;;;;18.92;10.98;;;;;;;21.21;26.54;100038.34;4488849;77;21034;-86
2022/03/25 11:54:59;;;;;;;20.35;11.80;;;;;;;20.91;26.49;100036.97;4493172;77;20997;-86
2022/03/25 12:01:06;;;;;;;17.67;11.28;;;;;;;20.61;26.43;100038.39;4488533;77;21028;-86
2022/03/25 12:07:08;;;;;;;17.95;11.40;;;;;;;20.15;26.06;100027.20;4478411;77;20979;-85
2022/03/25 12:13:10;;;;;;;28.77;16.60;;;;;;;19.87;26.45;100020.52;4483994;77;21019;-86
2022/03/25 12:19:39;;;;;;;19.77;10.45;;;;;;;19.54;26.67;100014.33;4478151;77;21008;-86
2022/03/25 12:25:45;;;;;;;18.07;9.25;;;;;;;19.50;26.70;100004.42;4478850;77;20963;-87
2022/03/25 12:31:50;;;;;;;26.87;12.05;;;;;;;19.36;26.93;99997.60;4483582;77;21488;-86
2022/03/25 12:38:21;;;;;;;20.85;9.50;;;;;;;19.21;27.24;99993.34;4464338;77;21003;-86
2022/03/25 12:44:27;;;;;;;20.68;9.35;;;;;;;19.19;27.30;99984.63;4466873;78;21591;-85
2022/03/25 12:50:29;;;;;;;16.12;9.60;;;;;;;18.91;27.07;99980.67;4460497;78;20981;-87
2022/03/25 12:56:30;;;;;;;25.25;12.93;;;;;;;18.83;27.30;99974.98;4455974;78;21622;-87
2022/03/25 13:02:34;;;;;;;19.25;10.50;;;;;;;18.82;27.29;99969.25;4459650;78;21016;-88
2022/03/25 13:08:35;;;;;;;15.60;8.70;;;;;;;18.69;27.35;99964.19;4460493;78;21102;-85
2022/03/25 13:14:37;;;;;;;16.42;9.88;;;;;;;18.39;27.71;99961.19;4460025;78;20993;-87
2022/03/25 13:20:45;;;;;;;16.57;9.75;;;;;;;18.19;27.91;99957.88;4460103;78;21010;-86
2022/03/25 13:26:47;;;;;;;17.85;9.65;;;;;;;18.10;28.10;99951.38;4456272;78;21028;-86
2022/03/25 13:33:05;;;;;;;30.80;13.93;;;;;;;18.06;28.30;99960.31;4460060;78;21946;-86
2022/03/25 13:39:14;;;;;;;25.25;13.35;;;;;;;18.04;28.18;99946.67;4479959;78;21052;-87
2022/03/25 13:45:18;;;;;;;19.52;12.05;;;;;;;17.76;28.47;99942.62;4485719;78;21948;-87
2022/03/25 13:51:37;;;;;;;22.45;13.75;;;;;;;17.57;28.70;99938.91;4461954;78;21017;-87
2022/03/25 13:57:39;;;;;;;20.27;11.73;;;;;;;17.60;28.83;99938.91;4477443;78;20988;-86
2022/03/25 14:03:40;;;;;;;33.48;15.95;;;;;;;17.48;29.10;99935.15;4486051;78;21939;-86
2022/03/25 14:17:37;;;;;;;31.30;15.23;;;;;;;17.68;29.34;99925.83;4481594;78;20928;-86
2022/03/25 14:23:38;;;;;;;32.20;15.68;;;;;;;17.89;29.54;99921.59;4387034;78;21418;-87
2022/03/25 14:29:45;;;;;;;29.35;16.12;;;;;;;18.00;29.47;99916.20;4491019;78;21027;-85
2022/03/25 14:35:52;;;;;;;29.27;16.25;;;;;;;17.91;29.47;99921.98;4459105;77;21043;-85
2022/03/25 14:41:53;;;;;;;;;;;;;;;17.96;29.61;99917.42;4481779;77;21032;-88
2022/03/25 14:48:08;;;;;;;23.22;14.80;;;;;;;17.59;29.83;99911.00;4474931;77;20445;-85
2022/03/25 14:54:25;;;;;;;28.30;15.60;;;;;;;17.52;29.99;99906.88;4451654;77;21028;-85
2022/03/25 15:00:27;;;;;;;28.15;14.10;;;;;;;17.38;30.04;99904.70;4483912;77;21027;-86
2022/03/25 15:06:32;;;;;;;26.60;14.07;;;;;;;17.23;29.93;99905.92;4485045;77;21051;-86
2022/03/25 15:12:33;;;;;;;31.65;13.83;;;;;;;17.01;30.41;99901.77;4476086;77;21603;-85
2022/03/25 15:18:37;;;;;;;24.45;13.28;;;;;;;16.75;30.78;99893.88;4480038;77;21008;-85
2022/03/25 15:24:39;;;;;;;26.93;13.60;;;;;;;16.29;31.11;99898.51;4484193;77;21006;-85
2022/03/25 15:37:21;;;;;;;27.87;14.38;;;;;;;16.17;31.02;99885.06;4472543;77;20981;-85
2022/03/25 15:43:32;;;;;;;27.75;13.43;;;;;;;15.99;31.15;99889.73;4477677;77;20936;-85
2022/03/25 15:49:44;;;;;;;32.83;13.00;;;;;;;15.79;31.37;99887.09;4473424;77;21015;-85
2022/03/25 15:55:45;;;;;;;28.70;12.75;;;;;;;15.67;31.63;99886.06;4471198;77;21027;-85
2022/03/25 16:01:47;;;;;;;27.45;12.33;;;;;;;15.53;31.79;99881.86;4470321;79;21473;-85
2022/03/25 16:07:53;;;;;;;27.77;11.63;;;;;;;15.33;32.13;99886.05;4482638;77;21472;-85
2022/03/25 16:14:01;;;;;;;18.05;9.53;;;;;;;14.98;32.27;99885.80;4478035;77;21487;-86
2022/03/25 16:20:04;;;;;;;20.75;10.50;;;;;;;14.74;32.38;99892.69;4354077;80;21564;-85
2022/03/25 16:26:05;;;;;;;23.83;10.98;;;;;;;14.61;32.55;99898.27;4490460;77;21872;-86
2022/03/25 16:32:08;;;;;;;25.32;12.55;;;;;;;14.48;32.70;99890.67;4481753;77;21050;-85
2022/03/25 16:38:09;;;;;;;28.90;14.00;;;;;;;14.29;32.87;99888.13;4480277;77;20956;-85
2022/03/25 16:44:10;;;;;;;32.93;13.30;;;;;;;14.13;33.03;99896.58;4475267;77;21009;-86
2022/03/25 16:50:24;;;;;;;25.75;13.35;;;;;;;13.97;33.37;99895.42;4484385;77;21094;-86
2022/03/25 16:56:26;;;;;;;39.27;14.83;;;;;;;13.64;33.73;99900.89;4476335;77;21090;-85
2022/03/25 17:02:39;;;;;;;35.68;15.58;;;;;;;13.17;34.11;99906.12;4484564;77;21500;-85
2022/03/25 17:08:40;;;;;;;31.35;15.28;;;;;;;12.80;34.44;99909.23;4476775;77;21630;-85
2022/03/25 17:29:03;;;;;;;42.43;18.62;;;;;;;11.51;35.99;99928.06;4414696;79;21067;-84
2022/03/25 17:48:32;;;;;;;60.25;26.55;;;;;;;10.69;38.23;99937.67;4524260;77;21391;-85
2022/03/25 17:54:34;;;;;;;46.60;21.42;;;;;;;10.53;38.58;99942.89;4524163;77;21036;-85
2022/03/25 18:00:57;;;;;;;45.52;20.75;;;;;;;10.05;39.02;99941.19;4515262;77;21054;-85
2022/03/25 18:07:18;;;;;;;46.35;23.10;;;;;;;9.81;39.56;99954.14;4514614;77;21035;-85
2022/03/25 18:27:00;;;;;;;52.65;26.25;;;;;;;8.73;41.01;99965.39;4513876;77;21059;-86
2022/03/25 18:33:01;;;;;;;51.18;26.93;;;;;;;8.48;41.28;99977.95;4519968;77;20979;-85
2022/03/25 18:39:04;;;;;;;55.28;26.80;;;;;;;8.11;41.91;99984.39;4495048;77;21818;-85
2022/03/25 18:45:19;;;;;;;63.75;30.30;;;;;;;7.79;42.37;99986.73;4489332;79;21366;-84
2022/03/25 18:51:21;;;;;;;80.47;36.05;;;;;;;7.65;42.79;100000.38;4490663;77;21036;-85
2022/03/25 18:57:31;;;;;;;106.25;40.03;;;;;;;7.43;43.22;99997.96;4485570;77;20955;-85
2022/03/25 19:03:39;;;;;;;90.77;43.63;;;;;;;7.29;43.90;100005.57;4492951;77;20977;-85
2022/03/25 19:09:46;;;;;;;75.83;36.93;;;;;;;7.07;44.32;100020.81;4497685;78;21040;-86
2022/03/25 19:16:03;;;;;;;81.22;36.83;;;;;;;6.87;44.68;100010.66;4486618;77;21010;-85
2022/03/25 19:22:06;;;;;;;110.45;49.35;;;;;;;6.71;45.17;100014.47;4316280;81;21482;-85
2022/03/25 19:28:28;;;;;;;109.07;48.85;;;;;;;6.53;45.60;100019.70;4333355;80;21565;-85
2022/03/25 19:34:29;;;;;;;122.70;55.40;;;;;;;6.34;45.96;100021.41;4333694;80;21091;-85
2022/03/25 19:40:31;;;;;;;110.32;48.30;;;;;;;6.12;46.21;100029.74;4328801;80;21026;-85
2022/03/25 19:46:41;;;;;;;123.80;52.08;;;;;;;6.03;47.14;100030.86;4315980;80;21130;-85
2022/03/25 20:00:00;;;;;;;150.05;61.98;;;;;;;5.77;47.78;100030.03;4319255;80;20986;-85
2022/03/25 20:06:03;;;;;;;99.83;47.78;;;;;;;5.63;48.23;100032.09;4317244;80;21045;-86
2022/03/25 20:12:14;;;;;;;100.40;49.55;;;;;;;5.54;48.43;100038.88;4313032;80;21448;-84
2022/03/25 20:18:20;;;;;;;107.85;50.28;;;;;;;5.30;48.85;100039.03;4368500;81;20945;-85
2022/03/25 20:24:25;;;;;;;116.35;49.85;;;;;;;5.10;49.38;100047.20;4483952;78;20953;-84
2022/03/25 20:30:34;;;;;;;119.37;50.75;;;;;;;4.97;50.07;100043.21;4486255;78;20952;-84
2022/03/25 20:36:47;;;;;;;118.05;55.45;;;;;;;4.95;50.57;100048.95;4483443;78;21564;-84
2022/03/25 20:42:49;;;;;;;122.80;54.05;;;;;;;4.71;50.68;100057.45;4477636;77;20981;-85
2022/03/25 20:48:51;;;;;;;114.95;53.75;;;;;;;4.60;51.19;100058.03;4484430;77;20984;-84
2022/03/25 20:54:52;;;;;;;117.13;51.85;;;;;;;4.46;51.63;100062.73;4482802;77;21547;-84
2022/03/25 21:00:56;;;;;;;128.42;55.35;;;;;;;4.30;51.92;100060.13;4487657;79;20976;-84
2022/03/25 21:06:59;;;;;;;113.00;52.25;;;;;;;4.10;52.23;100052.48;4483107;77;21508;-85
2022/03/25 21:13:06;;;;;;;102.27;48.58;;;;;;;3.98;52.81;100057.63;4479921;77;21019;-85
2022/03/25 21:19:08;;;;;;;99.55;44.70;;;;;;;3.96;53.56;100057.16;4486217;77;22240;-84
2022/03/25 21:25:11;;;;;;;114.30;49.67;;;;;;;4.05;54.12;100060.73;4475970;77;21063;-84
2022/03/25 21:31:13;;;;;;;110.30;49.77;;;;;;;3.94;54.03;100068.30;4473675;77;21012;-84
2022/03/25 21:37:14;;;;;;;111.95;52.35;;;;;;;3.89;54.20;100072.47;4473376;77;21028;-85
2022/03/25 21:43:26;;;;;;;109.07;49.10;;;;;;;3.69;54.41;100082.94;4482107;77;21008;-85
2022/03/25 21:50:42;;;;;;;113.32;51.60;;;;;;;3.65;55.09;100091.43;4466180;77;21034;-84
2022/03/25 21:56:43;;;;;;;112.80;51.60;;;;;;;3.46;54.97;100088.03;4469377;77;21035;-84
2022/03/25 22:02:46;;;;;;;116.35;54.13;;;;;;;3.21;55.09;100096.11;4463262;77;21030;-84
2022/03/25 22:08:47;;;;;;;118.00;55.10;;;;;;;2.94;54.34;100095.50;4481244;77;21809;-83
2022/03/25 22:14:48;;;;;;;115.77;54.13;;;;;;;2.79;54.80;100100.38;4480234;77;20974;-84
2022/03/25 22:20:59;;;;;;;132.35;64.22;;;;;;;2.57;56.52;100102.95;4477829;77;21540;-84
2022/03/25 22:41:24;;;;;;;116.45;55.08;;;;;;;2.02;57.20;100107.28;4491949;77;21068;-84
2022/03/25 22:47:26;;;;;;;112.15;50.95;;;;;;;1.95;58.10;100117.66;4490190;77;21028;-84
2022/03/25 22:53:31;;;;;;;114.17;52.67;;;;;;;2.03;58.32;100118.36;4494170;77;21008;-84
2022/03/25 22:59:36;;;;;;;124.85;55.45;;;;;;;2.05;58.58;100114.02;4486806;77;21456;-84
2022/03/25 23:05:39;;;;;;;124.25;55.23;;;;;;;2.05;58.80;100106.70;4498421;77;26372;-84
2022/03/25 23:11:46;;;;;;;112.65;50.25;;;;;;;1.93;58.79;100109.04;4493328;77;21005;-84
2022/03/25 23:31:56;;;;;;;108.10;50.60;;;;;;;1.87;59.60;100110.20;4503848;77;21027;-84
2022/03/25 23:38:02;;;;;;;108.85;52.60;;;;;;;1.70;58.38;100101.80;4496294;77;21074;-84
2022/03/25 23:44:04;;;;;;;121.13;56.50;;;;;;;1.71;60.11;100091.81;4492870;77;21051;-84
2022/03/25 23:50:07;;;;;;;110.03;52.10;;;;;;;1.75;60.06;100094.18;4494855;77;20972;-84
2022/03/25 23:56:09;;;;;;;122.82;56.20;;;;;;;1.69;60.89;100094.00;4492450;77;21564;-84
